createdAt,value
2023-01-28T00:02:03.128Z,3.91
2023-01-28T00:04:32.161Z,3.88
2023-01-28T00:06:58.811Z,3.78
2023-01-28T00:09:25.460Z,3.74
2023-01-28T00:11:52.046Z,3.90
2023-01-28T00:14:18.633Z,3.79
2023-01-28T00:16:45.402Z,3.87
2023-01-28T00:19:11.987Z,3.83
2023-01-28T00:21:38.610Z,3.83
2023-01-28T00:24:07.072Z,3.72
2023-01-28T00:26:33.726Z,3.78
2023-01-28T00:29:02.397Z,3.79
2023-01-28T00:31:31.365Z,3.79
2023-01-28T00:34:00.505Z,3.78
2023-01-28T00:36:27.633Z,3.76
2023-01-28T00:38:56.817Z,3.74
2023-01-28T00:41:25.993Z,3.75
2023-01-28T00:43:58.074Z,3.74
2023-01-28T00:46:28.444Z,3.58
2023-01-28T00:48:55.565Z,3.72
2023-01-28T00:51:24.657Z,3.70
2023-01-28T00:53:51.279Z,3.69
2023-01-28T00:56:19.616Z,3.70
2023-01-28T00:58:46.697Z,3.70
2023-01-28T01:01:17.136Z,3.59
2023-01-28T01:03:44.197Z,3.61
2023-01-28T01:06:14.893Z,3.57
2023-01-28T01:08:43.044Z,3.67
2023-01-28T01:11:12.023Z,3.66
2023-01-28T01:13:41.438Z,3.60
2023-01-28T01:16:11.349Z,3.55
2023-01-28T01:18:42.041Z,3.62
2023-01-28T01:21:11.429Z,3.63
2023-01-28T01:23:38.028Z,3.55
2023-01-28T01:26:06.174Z,3.55
2023-01-28T01:28:33.417Z,3.53
2023-01-28T01:31:02.552Z,3.58
2023-01-28T01:33:37.550Z,3.58
2023-01-28T01:36:06.329Z,3.57
2023-01-28T01:38:32.910Z,3.54
2023-01-28T01:41:00.819Z,3.53
2023-01-28T01:43:50.878Z,3.50
2023-01-28T01:46:23.094Z,3.39
2023-01-28T01:48:50.076Z,3.36
2023-01-28T01:51:21.907Z,3.52
2023-01-28T01:53:52.218Z,3.53
2023-01-28T01:56:23.081Z,3.51
2023-01-28T01:58:53.675Z,3.09
2023-01-28T02:01:25.572Z,3.48
2023-01-28T02:04:08.896Z,3.51
2023-01-28T02:06:37.878Z,3.53
2023-01-28T02:09:23.846Z,3.47
2023-01-28T02:11:56.481Z,3.30
2023-01-28T02:14:31.498Z,3.42
2023-01-28T02:17:01.599Z,3.47
2023-01-28T02:19:37.226Z,3.47
2023-01-28T02:22:40.334Z,3.35
2023-01-28T02:25:34.867Z,3.50
2023-01-28T02:28:15.014Z,3.51
2023-01-28T02:30:54.727Z,3.40
2023-01-28T02:33:59.582Z,3.49
2023-01-28T02:36:26.090Z,3.49
2023-01-28T02:38:54.701Z,3.49
2023-01-28T02:41:29.078Z,3.37
2023-01-28T02:43:55.657Z,3.49
2023-01-28T02:46:43.920Z,3.48
2023-01-28T02:49:16.070Z,3.48
2023-01-28T02:52:09.393Z,3.45
2023-01-28T02:54:38.888Z,3.45
2023-01-28T02:57:05.433Z,3.42
2023-01-28T02:59:41.756Z,3.41
2023-01-28T03:02:42.238Z,3.31
2023-01-28T03:05:22.514Z,3.22
2023-01-28T03:07:50.322Z,3.32
2023-01-28T03:10:20.799Z,3.29
2023-01-28T03:13:10.693Z,3.22
2023-01-28T03:16:04.837Z,3.31
2023-01-28T03:19:06.247Z,3.29
2023-01-28T03:21:55.567Z,3.20
2023-01-28T03:24:43.711Z,3.19
2023-01-28T03:27:35.141Z,3.24
2023-01-28T03:30:26.401Z,3.20
2023-01-28T03:33:15.146Z,3.22
2023-01-28T03:36:00.728Z,3.25
2023-01-28T03:38:34.046Z,3.23
2023-01-28T03:41:03.838Z,3.25
2023-01-28T03:43:31.494Z,3.23
2023-01-28T03:45:58.509Z,3.21
2023-01-28T03:48:27.440Z,3.19
2023-01-28T03:50:55.955Z,3.16
2023-01-28T03:53:25.027Z,3.18
2023-01-28T03:55:53.231Z,3.18
2023-01-28T03:58:20.964Z,2.92
2023-01-28T04:00:48.022Z,3.08
2023-01-28T04:03:17.058Z,2.70
2023-01-28T04:05:58.919Z,3.01
2023-01-28T04:08:25.778Z,3.13
2023-01-28T04:10:54.616Z,3.07
2023-01-28T04:13:26.546Z,3.13
2023-01-28T04:15:53.187Z,3.12
2023-01-28T04:18:20.950Z,3.02
2023-01-28T04:20:50.054Z,3.09
2023-01-28T04:23:16.610Z,3.09
2023-01-28T04:25:43.191Z,3.10
2023-01-28T04:28:12.038Z,3.11
2023-01-28T04:30:38.624Z,3.11
2023-01-28T04:33:07.406Z,3.09
2023-01-28T04:35:33.992Z,3.01
2023-01-28T04:38:03.139Z,3.07
2023-01-28T04:40:32.313Z,3.08
2023-01-28T04:42:59.049Z,2.91
2023-01-28T04:45:25.645Z,3.07
2023-01-28T04:47:52.219Z,3.06
2023-01-28T04:50:18.865Z,3.07
2023-01-28T04:52:45.451Z,3.07
2023-01-28T04:55:12.186Z,3.07
2023-01-28T04:57:38.768Z,3.08
2023-01-28T05:00:06.333Z,2.96
2023-01-28T05:02:33.209Z,3.07
2023-01-28T05:05:01.589Z,2.99
2023-01-28T05:07:30.437Z,2.93
2023-01-28T05:09:59.458Z,3.06
2023-01-28T05:12:26.327Z,3.01
2023-01-28T05:14:52.888Z,2.91
2023-01-28T05:17:19.760Z,3.04
2023-01-28T05:19:46.421Z,3.03
2023-01-28T05:22:12.961Z,3.00
2023-01-28T05:24:39.501Z,2.96
2023-01-28T05:27:07.521Z,2.92
2023-01-28T05:29:34.149Z,3.00
2023-01-28T05:32:00.689Z,2.93
2023-01-28T05:34:27.249Z,3.01
2023-01-28T05:36:53.883Z,2.99
2023-01-28T05:39:20.444Z,2.98
2023-01-28T05:41:49.526Z,2.97
2023-01-28T05:44:16.079Z,2.97
2023-01-28T05:46:46.691Z,2.95
2023-01-28T05:49:13.672Z,2.96
2023-01-28T05:51:41.203Z,2.84
2023-01-28T05:54:10.480Z,2.91
2023-01-28T05:56:37.162Z,2.91
2023-01-28T05:59:05.537Z,2.88
2023-01-28T06:01:34.880Z,2.74
2023-01-28T06:04:01.433Z,2.89
2023-01-28T06:06:28.062Z,2.81
2023-01-28T06:08:54.613Z,2.69
2023-01-28T06:11:23.943Z,2.76
2023-01-28T06:13:53.104Z,2.85
2023-01-28T06:16:19.966Z,2.83
2023-01-28T06:18:46.528Z,2.74
2023-01-28T06:21:16.246Z,2.72
2023-01-28T06:23:42.841Z,2.83
2023-01-28T06:26:09.383Z,2.67
2023-01-28T06:28:36.082Z,2.79
2023-01-28T06:31:02.701Z,2.78
2023-01-28T06:33:29.573Z,2.78
2023-01-28T06:35:56.338Z,2.78
2023-01-28T06:38:25.964Z,2.76
2023-01-28T06:40:55.916Z,2.73
2023-01-28T06:43:27.994Z,2.62
2023-01-28T06:45:55.353Z,2.69
2023-01-28T06:48:22.426Z,2.69
2023-01-28T06:50:49.603Z,2.66
2023-01-28T06:53:17.033Z,2.67
2023-01-28T06:55:44.093Z,2.70
2023-01-28T06:58:10.920Z,2.68
2023-01-28T07:00:37.898Z,2.63
2023-01-28T07:03:05.338Z,2.67
2023-01-28T07:05:32.201Z,2.72
2023-01-28T07:07:58.845Z,2.61
2023-01-28T07:10:25.568Z,2.75
2023-01-28T07:12:52.308Z,2.72
2023-01-28T07:15:19.069Z,2.74
2023-01-28T07:17:45.992Z,2.71
2023-01-28T07:20:15.636Z,2.73
2023-01-28T07:22:45.699Z,2.79
2023-01-28T07:25:16.033Z,2.82
2023-01-28T07:27:53.588Z,2.75
2023-01-28T07:30:21.464Z,2.81
2023-01-28T07:32:53.596Z,2.80
2023-01-28T07:35:20.141Z,2.81
2023-01-28T07:37:57.688Z,2.71
2023-01-28T07:40:30.623Z,2.82
2023-01-28T07:42:57.691Z,2.81
2023-01-28T07:45:25.794Z,2.80
2023-01-28T07:48:00.349Z,2.80
2023-01-28T07:50:29.283Z,2.81
2023-01-28T07:53:01.777Z,2.82
2023-01-28T07:55:31.170Z,2.72
2023-01-28T07:58:03.443Z,2.78
2023-01-28T08:00:32.493Z,2.83
2023-01-28T08:03:04.095Z,2.69
2023-01-28T08:05:41.584Z,2.80
2023-01-28T08:08:09.906Z,2.81
2023-01-28T08:10:40.092Z,2.71
2023-01-28T08:13:07.519Z,2.79
2023-01-28T08:15:35.378Z,2.78
2023-01-28T08:18:05.530Z,2.76
2023-01-28T08:20:36.919Z,2.80
2023-01-28T08:23:14.104Z,2.77
2023-01-28T08:25:41.448Z,2.81
2023-01-28T08:28:09.404Z,2.81
2023-01-28T08:30:38.229Z,2.81
2023-01-28T08:33:06.323Z,2.17
2023-01-28T08:35:36.339Z,2.80
2023-01-28T08:38:04.054Z,2.34
2023-01-28T08:40:31.461Z,2.81
2023-01-28T08:43:01.007Z,2.80
2023-01-28T08:45:30.637Z,2.73
2023-01-28T08:48:05.604Z,2.79
2023-01-28T08:50:37.457Z,2.74
2023-01-28T08:53:07.263Z,2.78
2023-01-28T08:55:34.551Z,2.79
2023-01-28T08:58:11.356Z,2.82
2023-01-28T09:00:38.545Z,2.86
2023-01-28T09:03:06.381Z,2.70
2023-01-28T09:05:35.912Z,2.81
2023-01-28T09:08:08.443Z,2.82
2023-01-28T09:10:37.593Z,2.43
2023-01-28T09:13:12.959Z,2.76
2023-01-28T09:15:42.486Z,2.74
2023-01-28T09:18:09.094Z,2.63
2023-01-28T09:20:35.857Z,2.76
2023-01-28T09:23:02.568Z,2.77
2023-01-28T09:25:29.738Z,2.82
2023-01-28T09:27:57.244Z,2.81
2023-01-28T09:30:23.982Z,2.82
2023-01-28T09:32:55.499Z,2.88
2023-01-28T09:35:22.865Z,2.93
2023-01-28T09:37:49.759Z,2.32
2023-01-28T09:40:21.627Z,2.85
2023-01-28T09:42:59.548Z,2.93
2023-01-28T09:45:41.056Z,2.96
2023-01-28T09:48:21.696Z,2.97
2023-01-28T09:50:54.322Z,2.98
2023-01-28T09:53:43.773Z,3.02
2023-01-28T09:56:16.053Z,2.89
2023-01-28T09:58:43.393Z,2.88
2023-01-28T10:01:27.669Z,2.89
2023-01-28T10:04:13.662Z,2.86
2023-01-28T10:07:00.184Z,2.94
2023-01-28T10:09:48.711Z,2.96
2023-01-28T10:12:37.027Z,2.97
2023-01-28T10:15:25.401Z,2.93
2023-01-28T10:18:07.200Z,2.63
2023-01-28T10:20:49.693Z,2.92
2023-01-28T10:23:22.679Z,2.97
2023-01-28T10:25:49.506Z,2.95
2023-01-28T10:28:24.167Z,2.98
2023-01-28T10:30:51.749Z,3.00
2023-01-28T10:33:35.845Z,2.55
2023-01-28T10:36:03.175Z,3.06
2023-01-28T10:38:33.755Z,3.07
2023-01-28T10:41:07.284Z,3.23
2023-01-28T10:43:40.727Z,3.29
2023-01-28T10:46:30.088Z,2.88
2023-01-28T10:49:13.332Z,3.28
2023-01-28T10:51:42.148Z,3.37
2023-01-28T10:54:24.357Z,3.25
2023-01-28T10:56:55.794Z,3.33
2023-01-28T10:59:30.042Z,3.28
2023-01-28T11:01:59.707Z,3.45
2023-01-28T11:04:32.098Z,3.51
2023-01-28T11:07:18.659Z,3.59
2023-01-28T11:09:48.722Z,3.67
2023-01-28T11:12:27.589Z,3.75
2023-01-28T11:14:58.629Z,3.77
2023-01-28T11:17:29.327Z,3.83
2023-01-28T11:20:01.143Z,3.53
2023-01-28T11:22:33.512Z,3.95
2023-01-28T11:25:02.924Z,3.70
2023-01-28T11:27:31.953Z,3.57
2023-01-28T11:30:04.751Z,3.47
2023-01-28T11:32:31.704Z,3.29
2023-01-28T11:35:01.293Z,3.60
2023-01-28T11:37:29.393Z,3.64
2023-01-28T11:40:23.191Z,3.73
2023-01-28T11:43:00.452Z,3.83
2023-01-28T11:45:53.453Z,3.94
2023-01-28T11:48:27.026Z,4.14
2023-01-28T11:51:04.718Z,3.96
2023-01-28T11:54:16.469Z,4.46
2023-01-28T11:57:01.693Z,4.51
2023-01-28T11:59:34.468Z,4.50
2023-01-28T12:02:35.081Z,4.44
2023-01-28T12:05:33.897Z,4.63
2023-01-28T12:08:25.589Z,4.60
2023-01-28T12:11:46.769Z,4.68
2023-01-28T12:14:22.380Z,4.73
2023-01-28T12:16:59.412Z,4.66
2023-01-28T12:19:42.191Z,4.75
2023-01-28T12:22:34.703Z,4.75
2023-01-28T12:25:01.283Z,4.97
2023-01-28T12:27:30.806Z,4.90
2023-01-28T12:30:20.045Z,5.04
2023-01-28T12:32:52.899Z,5.10
2023-01-28T12:35:33.103Z,5.17
2023-01-28T12:38:03.289Z,5.42
2023-01-28T12:40:48.724Z,5.39
2023-01-28T12:43:23.472Z,5.35
2023-01-28T12:46:08.930Z,5.22
2023-01-28T12:49:10.375Z,5.30
2023-01-28T12:51:36.944Z,5.43
2023-01-28T12:54:12.184Z,5.50
2023-01-28T12:56:45.375Z,5.48
2023-01-28T12:59:30.331Z,5.56
2023-01-28T13:02:12.246Z,5.50
2023-01-28T13:05:11.485Z,5.46
2023-01-28T13:07:56.582Z,5.58
2023-01-28T13:10:35.432Z,5.59
2023-01-28T13:13:04.313Z,5.45
2023-01-28T13:15:31.829Z,5.47
2023-01-28T13:18:04.740Z,5.43
2023-01-28T13:20:54.148Z,5.34
2023-01-28T13:23:26.288Z,4.79
2023-01-28T13:25:55.115Z,5.37
2023-01-28T13:28:33.037Z,5.32
2023-01-28T13:31:08.631Z,5.47
2023-01-28T13:33:39.169Z,5.31
2023-01-28T13:36:35.021Z,5.19
2023-01-28T13:39:15.956Z,5.33
2023-01-28T13:41:54.914Z,5.51
2023-01-28T13:44:34.973Z,5.39
2023-01-28T13:47:07.656Z,5.36
2023-01-28T13:49:39.002Z,5.53
2023-01-28T13:52:24.592Z,5.73
2023-01-28T13:54:54.783Z,5.56
2023-01-28T13:58:01.800Z,5.76
2023-01-28T14:01:05.912Z,5.62
2023-01-28T14:04:03.562Z,5.89
2023-01-28T14:06:56.957Z,5.69
2023-01-28T14:09:31.645Z,5.92
2023-01-28T14:12:23.191Z,5.56
2023-01-28T14:14:58.778Z,5.47
2023-01-28T14:17:47.612Z,5.63
2023-01-28T14:20:31.178Z,5.31
2023-01-28T14:23:14.367Z,5.24
2023-01-28T14:25:52.026Z,5.17
2023-01-28T14:28:33.542Z,4.94
2023-01-28T14:31:09.258Z,5.04
2023-01-28T14:33:37.158Z,4.71
2023-01-28T14:36:06.986Z,4.79
2023-01-28T14:38:44.915Z,4.74
2023-01-28T14:41:29.387Z,4.81
2023-01-28T14:43:57.115Z,4.82
2023-01-28T14:47:06.032Z,4.73
2023-01-28T14:49:55.788Z,4.64
2023-01-28T14:52:42.326Z,4.68
2023-01-28T14:55:40.655Z,4.67
2023-01-28T14:58:17.564Z,4.61
2023-01-28T15:00:55.160Z,4.56
2023-01-28T15:03:25.401Z,4.51
2023-01-28T15:06:14.323Z,4.52
2023-01-28T15:08:43.205Z,4.33
2023-01-28T15:11:17.832Z,4.70
2023-01-28T15:13:50.913Z,4.59
2023-01-28T15:16:29.088Z,4.50
2023-01-28T15:18:57.435Z,4.44
2023-01-28T15:21:26.843Z,4.38
2023-01-28T15:23:59.952Z,4.34
2023-01-28T15:26:31.215Z,4.16
2023-01-28T15:29:00.417Z,4.60
2023-01-28T15:31:32.824Z,4.34
2023-01-28T15:34:11.152Z,4.20
2023-01-28T15:36:37.882Z,4.12
2023-01-28T15:39:13.859Z,4.26
2023-01-28T15:41:47.462Z,4.05
2023-01-28T15:44:35.104Z,3.95
2023-01-28T15:47:07.390Z,3.89
2023-01-28T15:49:43.351Z,3.86
2023-01-28T15:52:10.600Z,3.82
2023-01-28T15:54:40.693Z,3.76
2023-01-28T15:57:20.736Z,3.66
2023-01-28T15:59:51.202Z,3.21
2023-01-28T16:02:22.269Z,3.48
2023-01-28T16:05:03.740Z,3.40
2023-01-28T16:07:42.682Z,3.34
2023-01-28T16:10:21.547Z,3.25
2023-01-28T16:12:53.091Z,3.16
2023-01-28T16:15:23.128Z,3.11
2023-01-28T16:17:55.095Z,3.05
2023-01-28T16:20:26.377Z,2.98
2023-01-28T16:23:00.065Z,2.84
2023-01-28T16:25:29.639Z,2.83
2023-01-28T16:28:00.929Z,2.75
2023-01-28T16:30:31.178Z,2.69
2023-01-28T16:32:58.309Z,2.68
2023-01-28T16:35:47.394Z,2.74
2023-01-28T16:38:17.749Z,2.69
2023-01-28T16:40:48.345Z,2.41
2023-01-28T16:43:16.475Z,2.58
2023-01-28T16:45:43.709Z,2.54
2023-01-28T16:48:13.385Z,2.53
2023-01-28T16:50:42.035Z,2.54
2023-01-28T16:53:20.240Z,2.55
2023-01-28T16:55:49.516Z,2.52
2023-01-28T16:58:20.075Z,2.55
2023-01-28T17:00:47.178Z,2.61
2023-01-28T17:03:13.919Z,2.61
2023-01-28T17:05:42.783Z,2.69
2023-01-28T17:08:09.575Z,2.80
2023-01-28T17:10:36.340Z,2.83
2023-01-28T17:13:03.132Z,2.85
2023-01-28T17:15:34.197Z,2.77
2023-01-28T17:18:00.945Z,2.71
2023-01-28T17:20:27.711Z,2.74
2023-01-28T17:22:54.305Z,2.77
2023-01-28T17:25:20.974Z,2.76
2023-01-28T17:27:49.443Z,2.77
2023-01-28T17:30:19.618Z,2.74
2023-01-28T17:32:46.211Z,2.76
2023-01-28T17:35:12.934Z,2.71
2023-01-28T17:37:39.554Z,2.78
2023-01-28T17:40:06.847Z,2.81
2023-01-28T17:42:33.383Z,2.83
2023-01-28T17:45:03.223Z,2.87
2023-01-28T17:47:33.090Z,2.89
2023-01-28T17:49:59.803Z,2.90
2023-01-28T17:52:26.780Z,2.92
2023-01-28T17:54:53.452Z,2.91
2023-01-28T17:57:20.523Z,2.90
2023-01-28T17:59:49.684Z,2.85
2023-01-28T18:02:16.849Z,2.84
2023-01-28T18:04:43.671Z,2.80
2023-01-28T18:07:13.803Z,2.78
2023-01-28T18:09:42.229Z,2.74
2023-01-28T18:12:11.014Z,2.67
2023-01-28T18:14:38.648Z,2.60
2023-01-28T18:17:08.972Z,2.13
2023-01-28T18:19:35.640Z,2.40
2023-01-28T18:22:02.231Z,2.34
2023-01-28T18:24:30.416Z,1.89
2023-01-28T18:27:03.301Z,2.22
2023-01-28T18:29:31.465Z,2.12
2023-01-28T18:31:59.675Z,1.76
2023-01-28T18:34:31.724Z,1.89
2023-01-28T18:37:03.506Z,2.04
2023-01-28T18:39:31.119Z,2.03
2023-01-28T18:41:59.177Z,2.02
2023-01-28T18:44:28.381Z,1.88
2023-01-28T18:46:54.975Z,1.97
2023-01-28T18:49:22.005Z,1.92
2023-01-28T18:51:50.863Z,1.94
2023-01-28T18:54:17.657Z,1.97
2023-01-28T18:56:44.248Z,1.98
2023-01-28T18:59:13.022Z,1.96
2023-01-28T19:01:42.834Z,1.97
2023-01-28T19:04:10.518Z,1.76
2023-01-28T19:06:37.299Z,1.96
2023-01-28T19:09:06.654Z,1.97
2023-01-28T19:11:38.507Z,2.00
2023-01-28T19:14:05.191Z,2.01
2023-01-28T19:16:32.048Z,1.94
2023-01-28T19:19:00.584Z,1.71
2023-01-28T19:21:29.194Z,2.11
2023-01-28T19:23:57.748Z,2.14
2023-01-28T19:26:29.847Z,2.07
2023-01-28T19:28:57.061Z,2.11
2023-01-28T19:31:24.791Z,2.14
2023-01-28T19:34:01.339Z,2.15
2023-01-28T19:36:30.776Z,2.15
2023-01-28T19:39:01.270Z,2.15
2023-01-28T19:41:28.937Z,2.21
2023-01-28T19:43:58.971Z,2.17
2023-01-28T19:46:26.120Z,2.03
2023-01-28T19:48:53.446Z,2.19
2023-01-28T19:51:20.591Z,2.23
2023-01-28T19:53:52.946Z,2.26
2023-01-28T19:56:21.397Z,2.28
2023-01-28T19:58:48.236Z,2.30
2023-01-28T20:01:20.561Z,2.32
2023-01-28T20:03:52.713Z,2.26
2023-01-28T20:06:19.538Z,2.34
2023-01-28T20:08:52.102Z,2.27
2023-01-28T20:11:18.858Z,2.32
2023-01-28T20:13:51.572Z,2.36
2023-01-28T20:16:26.816Z,2.37
2023-01-28T20:19:01.172Z,2.34
2023-01-28T20:21:29.817Z,2.36
2023-01-28T20:23:58.352Z,2.36
2023-01-28T20:26:29.542Z,2.30
2023-01-28T20:29:04.523Z,2.33
2023-01-28T20:31:32.762Z,2.36
2023-01-28T20:34:00.245Z,2.36
2023-01-28T20:36:27.352Z,2.36
2023-01-28T20:38:53.932Z,2.36
2023-01-28T20:41:23.676Z,2.37
2023-01-28T20:43:54.616Z,2.28
2023-01-28T20:46:27.612Z,2.40
2023-01-28T20:48:58.162Z,2.37
2023-01-28T20:51:27.286Z,2.38
2023-01-28T20:53:54.881Z,2.33
2023-01-28T20:56:25.537Z,2.26
2023-01-28T20:58:57.249Z,1.97
2023-01-28T21:01:29.927Z,2.30
2023-01-28T21:03:56.826Z,2.32
2023-01-28T21:06:29.219Z,2.35
2023-01-28T21:08:57.103Z,2.35
2023-01-28T21:11:25.574Z,2.28
2023-01-28T21:13:55.647Z,2.36
2023-01-28T21:16:23.320Z,2.35
2023-01-28T21:18:50.450Z,2.35
2023-01-28T21:21:22.603Z,2.29
2023-01-28T21:23:49.799Z,2.36
2023-01-28T21:26:17.280Z,2.05
2023-01-28T21:28:45.037Z,2.35
2023-01-28T21:31:18.124Z,2.37
2023-01-28T21:33:49.576Z,2.36
2023-01-28T21:36:17.683Z,2.36
2023-01-28T21:38:45.366Z,2.34
2023-01-28T21:41:12.081Z,2.30
2023-01-28T21:43:40.890Z,2.22
2023-01-28T21:46:09.980Z,2.24
2023-01-28T21:48:36.612Z,2.30
2023-01-28T21:51:26.626Z,2.29
2023-01-28T21:53:53.449Z,2.29
2023-01-28T21:56:20.225Z,2.18
2023-01-28T21:59:05.309Z,2.30
2023-01-28T22:01:32.313Z,2.26
2023-01-28T22:03:59.097Z,2.16
2023-01-28T22:06:25.739Z,2.25
2023-01-28T22:08:54.997Z,2.12
2023-01-28T22:11:21.622Z,2.21
2023-01-28T22:13:49.012Z,2.24
2023-01-28T22:16:19.012Z,2.21
2023-01-28T22:18:46.767Z,2.19
2023-01-28T22:21:14.581Z,2.21
2023-01-28T22:23:41.254Z,2.09
2023-01-28T22:26:10.117Z,2.19
2023-01-28T22:28:37.902Z,2.11
2023-01-28T22:31:09.735Z,2.10
2023-01-28T22:33:37.269Z,2.16
2023-01-28T22:36:13.830Z,2.18
2023-01-28T22:38:42.279Z,2.16
2023-01-28T22:41:19.184Z,2.16
2023-01-28T22:43:48.901Z,2.13
2023-01-28T22:46:16.398Z,2.11
2023-01-28T22:48:46.049Z,2.07
2023-01-28T22:51:21.992Z,1.87
2023-01-28T22:53:49.960Z,2.11
2023-01-28T22:56:18.620Z,2.09
2023-01-28T22:58:45.914Z,1.89
2023-01-28T23:01:15.541Z,1.78
2023-01-28T23:03:49.734Z,1.92
2023-01-28T23:06:18.807Z,1.85
2023-01-28T23:08:46.290Z,1.79
2023-01-28T23:11:25.520Z,1.73
2023-01-28T23:14:33.148Z,1.68
2023-01-28T23:17:18.420Z,1.64
2023-01-28T23:20:03.380Z,1.61
2023-01-28T23:22:52.355Z,1.56
2023-01-28T23:25:20.067Z,1.43
2023-01-28T23:27:46.728Z,1.49
2023-01-28T23:30:17.232Z,1.28
2023-01-28T23:32:49.604Z,1.27
2023-01-28T23:35:17.313Z,1.41
2023-01-28T23:37:43.838Z,1.41
2023-01-28T23:40:15.027Z,1.42
2023-01-28T23:42:44.769Z,1.37
2023-01-28T23:45:11.711Z,1.37
2023-01-28T23:47:38.342Z,1.38
2023-01-28T23:50:07.381Z,1.40
2023-01-28T23:52:36.472Z,1.36
2023-01-28T23:55:03.310Z,0.93
2023-01-28T23:57:32.116Z,1.41
2023-01-28T23:59:58.675Z,1.31
